Time;durP1;ratioP1;P1;durP2;ratioP2;P2;SDS_P1;SDS_P2;PMS_P1;PMS_P2;Temp;Humidity;BMP_temperature;BMP_pressure;BME280_temperature;BME280_humidity;BME280_pressure;Samples;Min_cycle;Max_cycle;Signal;HPM_P1;HPM_P2
2023/12/19 00:00:18;;;;;;;;;;;;;;;6.84;100.00;102450.94;5112438;28;19912;-45
2023/12/19 00:02:43;;;;;;;;;;;;;;;6.86;100.00;102451.69;5111615;28;19972;-44
2023/12/19 00:05:09;;;;;;;;;;;;;;;6.85;100.00;102441.97;5112388;28;20006;-43
2023/12/19 00:07:34;;;;;;;;;;;;;;;6.87;100.00;102424.78;5113356;28;19958;-43
2023/12/19 00:10:00;;;;;;;;;;;;;;;6.86;100.00;102412.38;5112691;28;20448;-44
2023/12/19 00:12:25;;;;;;;;;;;;;;;6.82;100.00;102406.44;5112009;28;20433;-44
2023/12/19 00:14:50;;;;;;;;;;;;;;;6.85;100.00;102409.84;5112290;28;20434;-44
2023/12/19 00:17:15;;;;;;;;;;;;;;;6.84;100.00;102414.31;5112096;28;19928;-43
2023/12/19 00:19:41;;;;;;;;;;;;;;;6.84;100.00;102416.16;5112517;28;20095;-43
2023/12/19 00:22:06;;;;;;;;;;;;;;;6.89;100.00;102416.66;5112054;28;19926;-45
2023/12/19 00:24:31;;;;;;;;;;;;;;;6.85;100.00;102405.34;5112003;28;20408;-43
2023/12/19 00:26:56;;;;;;;;;;;;;;;6.87;100.00;102399.84;5112054;28;19955;-44
2023/12/19 00:29:22;;;;;;;;;;;;;;;6.89;100.00;102400.59;5114235;28;19958;-44
2023/12/19 00:31:47;;;;;;;;;;;;;;;6.86;100.00;102395.47;5118905;27;19973;-44
2023/12/19 00:34:13;;;;;;;;;;;;;;;6.86;100.00;102390.13;5118907;28;20362;-44
2023/12/19 00:36:39;;;;;;;;;;;;;;;6.88;100.00;102401.56;5119065;27;20352;-43
2023/12/19 00:39:04;;;;;;;;;;;;;;;6.89;100.00;102398.75;5117110;28;20290;-43
2023/12/19 00:41:29;;;;;;;;;;;;;;;6.94;100.00;102393.06;5118382;28;19927;-44
2023/12/19 00:43:55;;;;;;;;;;;;;;;6.94;100.00;102395.72;5118930;28;19916;-44
2023/12/19 00:46:20;;;;;;;;;;;;;;;6.96;100.00;102388.44;5118969;27;19966;-45
2023/12/19 00:48:45;;;;;;;;;;;;;;;6.95;100.00;102389.41;5118116;28;19999;-44
2023/12/19 00:51:11;;;;;;;;;;;;;;;6.95;100.00;102386.72;5118151;27;19923;-44
2023/12/19 00:53:36;;;;;;;;;;;;;;;6.95;100.00;102373.34;5118525;27;19973;-44
2023/12/19 00:56:01;;;;;;;;;;;;;;;6.96;100.00;102388.44;5118933;28;19955;-44
2023/12/19 00:58:27;;;;;;;;;;;;;;;7.01;100.00;102372.88;5118507;27;19920;-44
2023/12/19 01:00:52;;;;;;;;;;;;;;;6.98;100.00;102360.59;5118734;28;20374;-44
2023/12/19 01:03:17;;;;;;;;;;;;;;;6.96;100.00;102373.22;5118655;28;20378;-44
2023/12/19 01:05:43;;;;;;;;;;;;;;;6.97;100.00;102366.03;5119011;28;20393;-43
2023/12/19 01:08:08;;;;;;;;;;;;;;;6.94;100.00;102361.78;5118898;27;19932;-45
2023/12/19 01:10:34;;;;;;;;;;;;;;;6.94;100.00;102360.94;5118209;28;19923;-44
2023/12/19 01:12:59;;;;;;;;;;;;;;;6.97;100.00;102358.00;5118349;28;20385;-44
2023/12/19 01:15:24;;;;;;;;;;;;;;;6.97;100.00;102360.69;5118110;28;19920;-42
2023/12/19 01:17:49;;;;;;;;;;;;;;;6.98;100.00;102357.91;5118030;28;19926;-45
2023/12/19 01:20:17;;;;;;;;;;;;;;;7.02;100.00;102347.78;5117345;28;20162;-45
2023/12/19 01:22:42;;;;;;;;;;;;;;;7.03;100.00;102357.56;5118284;27;19919;-46
2023/12/19 01:25:07;;;;;;;;;;;;;;;7.02;100.00;102359.34;5118088;28;19920;-47
2023/12/19 01:27:32;;;;;;;;;;;;;;;7.01;100.00;102354.13;5118053;28;20014;-45
2023/12/19 01:29:58;;;;;;;;;;;;;;;7.03;100.00;102355.72;5118632;28;20369;-47
2023/12/19 01:32:23;;;;;;;;;;;;;;;7.03;100.00;102349.53;5117939;28;20429;-45
2023/12/19 01:34:48;;;;;;;;;;;;;;;6.96;100.00;102354.50;5118250;28;19927;-45
2023/12/19 01:37:13;;;;;;;;;;;;;;;6.97;100.00;102352.66;5118566;27;19916;-45
2023/12/19 01:39:39;;;;;;;;;;;;;;;6.95;100.00;102341.22;5118195;28;20437;-44
2023/12/19 01:42:04;;;;;;;;;;;;;;;6.94;100.00;102363.63;5113681;28;20361;-45
2023/12/19 01:44:29;;;;;;;;;;;;;;;6.96;100.00;102353.66;5113515;28;19920;-46
2023/12/19 01:46:54;;;;;;;;;;;;;;;6.96;100.00;102354.50;5114970;28;19920;-47
2023/12/19 01:49:20;;;;;;;;;;;;;;;6.93;100.00;102345.88;5114428;28;19972;-47
2023/12/19 01:51:45;;;;;;;;;;;;;;;6.96;100.00;102341.09;5113513;28;19961;-46
2023/12/19 01:54:11;;;;;;;;;;;;;;;6.99;100.00;102327.47;5114725;28;19965;-48
2023/12/19 01:56:36;;;;;;;;;;;;;;;6.98;100.00;102319.59;5114427;28;19927;-50
2023/12/19 01:59:01;;;;;;;;;;;;;;;7.00;100.00;102320.28;5114714;28;19923;-47
2023/12/19 02:01:27;;;;;;;;;;;;;;;6.98;100.00;102323.09;5114883;28;19926;-47
2023/12/19 02:03:52;;;;;;;;;;;;;;;6.96;100.00;102316.19;5114553;28;19927;-48
2023/12/19 02:06:18;;;;;;;;;;;;;;;6.92;100.00;102312.88;5112812;28;19916;-47
2023/12/19 02:08:43;;;;;;;;;;;;;;;6.92;100.00;102320.91;5114396;28;20038;-49
2023/12/19 02:11:09;;;;;;;;;;;;;;;6.88;100.00;102303.41;5113378;28;19919;-48
2023/12/19 02:13:34;;;;;;;;;;;;;;;6.89;100.00;102314.94;5114838;28;20286;-47
2023/12/19 02:15:59;;;;;;;;;;;;;;;6.91;100.00;102305.81;5114535;28;19920;-47
2023/12/19 02:18:24;;;;;;;;;;;;;;;6.88;100.00;102291.84;5113555;28;19951;-47
2023/12/19 02:20:50;;;;;;;;;;;;;;;6.90;100.00;102285.41;5114142;28;20378;-48
2023/12/19 02:23:15;;;;;;;;;;;;;;;6.90;100.00;102279.16;5114161;28;20342;-47
2023/12/19 02:25:41;;;;;;;;;;;;;;;6.89;100.00;102277.47;5113086;28;19919;-46
2023/12/19 02:28:06;;;;;;;;;;;;;;;6.87;100.00;102284.78;5114479;28;20273;-46
2023/12/19 02:30:32;;;;;;;;;;;;;;;6.87;100.00;102266.03;5112754;28;19919;-47
2023/12/19 02:32:58;;;;;;;;;;;;;;;6.90;100.00;102266.66;5114061;28;19916;-46
2023/12/19 02:35:24;;;;;;;;;;;;;;;6.88;100.00;102263.25;5114806;28;20272;-49
2023/12/19 02:37:49;;;;;;;;;;;;;;;6.87;100.00;102280.25;5115179;27;20486;-45
2023/12/19 02:40:14;;;;;;;;;;;;;;;6.87;100.00;102252.66;5117389;28;20051;-45
2023/12/19 02:42:40;;;;;;;;;;;;;;;6.89;100.00;102245.38;5117668;28;20008;-45
2023/12/19 02:45:06;;;;;;;;;;;;;;;6.89;100.00;102245.38;5115989;28;19923;-46
2023/12/19 02:47:31;;;;;;;;;;;;;;;6.90;100.00;102247.94;5115226;28;20384;-46
2023/12/19 02:49:56;;;;;;;;;;;;;;;6.92;100.00;102245.13;5113848;28;20015;-46
2023/12/19 02:52:21;;;;;;;;;;;;;;;6.91;100.00;102243.44;5113829;28;19955;-45
2023/12/19 02:54:46;;;;;;;;;;;;;;;6.92;100.00;102247.78;5113619;28;19920;-45
2023/12/19 02:57:12;;;;;;;;;;;;;;;6.89;100.00;102235.50;5113676;28;19945;-45
2023/12/19 02:59:37;;;;;;;;;;;;;;;6.89;100.00;102224.81;5113659;28;19920;-47
2023/12/19 03:02:02;;;;;;;;;;;;;;;6.89;100.00;102231.97;5113277;28;19927;-47
2023/12/19 03:04:27;;;;;;;;;;;;;;;6.88;100.00;102232.97;5113624;28;19920;-46
2023/12/19 03:06:53;;;;;;;;;;;;;;;6.90;100.00;102220.28;5113619;28;19965;-46
2023/12/19 03:09:18;;;;;;;;;;;;;;;6.93;100.00;102217.41;5113638;28;19926;-45
2023/12/19 03:11:56;;;;;;;;;;;;;;;6.93;100.00;102214.72;5113358;28;19999;-45
2023/12/19 03:14:21;;;;;;;;;;;;;;;6.93;100.00;102202.19;5111768;28;20319;-47
2023/12/19 03:16:46;;;;;;;;;;;;;;;6.96;100.00;102209.09;5113117;28;19955;-45
2023/12/19 03:19:12;;;;;;;;;;;;;;;6.98;100.00;102202.66;5113713;28;19915;-46
2023/12/19 03:21:37;;;;;;;;;;;;;;;7.01;100.00;102188.19;5112927;28;19926;-48
2023/12/19 03:24:02;;;;;;;;;;;;;;;7.03;100.00;102192.44;5113059;28;19920;-49
2023/12/19 03:26:27;;;;;;;;;;;;;;;7.04;100.00;102188.75;5113042;28;19919;-47
2023/12/19 03:28:52;;;;;;;;;;;;;;;7.03;100.00;102183.56;5112912;28;20054;-46
2023/12/19 03:31:18;;;;;;;;;;;;;;;7.07;100.00;102179.63;5113246;28;19923;-45
2023/12/19 03:33:43;;;;;;;;;;;;;;;7.07;100.00;102168.91;5112587;28;21032;-48
2023/12/19 03:36:08;;;;;;;;;;;;;;;7.08;100.00;102154.53;5111397;28;19934;-47
2023/12/19 03:38:35;;;;;;;;;;;;;;;7.12;100.00;102145.31;5112493;28;19919;-47
2023/12/19 03:41:00;;;;;;;;;;;;;;;7.09;100.00;102140.19;5112179;28;19920;-47
2023/12/19 03:43:26;;;;;;;;;;;;;;;7.12;100.00;102129.22;5112806;28;19926;-47
2023/12/19 03:45:53;;;;;;;;;;;;;;;7.11;100.00;102132.91;5113854;28;19942;-47
2023/12/19 03:48:18;;;;;;;;;;;;;;;7.11;100.00;102140.06;5113252;28;19919;-46
2023/12/19 03:50:44;;;;;;;;;;;;;;;7.12;100.00;102139.09;5112728;28;20339;-45
2023/12/19 03:53:09;;;;;;;;;;;;;;;7.14;100.00;102126.44;5112818;28;19920;-44
2023/12/19 03:55:34;;;;;;;;;;;;;;;7.14;100.00;102129.97;5112512;28;20006;-44
2023/12/19 03:57:59;;;;;;;;;;;;;;;7.16;100.00;102119.09;5111690;28;19972;-47
2023/12/19 04:00:25;;;;;;;;;;;;;;;7.17;100.00;102121.66;5112116;28;19920;-48
2023/12/19 04:02:50;;;;;;;;;;;;;;;7.19;100.00;102122.41;5112329;28;19977;-46
2023/12/19 04:05:16;;;;;;;;;;;;;;;7.22;100.00;102126.66;5111990;28;20328;-44
2023/12/19 04:07:41;;;;;;;;;;;;;;;7.20;100.00;102118.72;5112545;28;19915;-46
2023/12/19 04:10:06;;;;;;;;;;;;;;;7.23;100.00;102118.47;5112297;28;19924;-45
2023/12/19 04:12:31;;;;;;;;;;;;;;;7.24;100.00;102136.25;5111794;28;19920;-47
2023/12/19 04:14:57;;;;;;;;;;;;;;;7.26;100.00;102114.69;5111865;28;20007;-47
2023/12/19 04:17:22;;;;;;;;;;;;;;;7.27;100.00;102121.75;5112210;28;19926;-46
2023/12/19 04:19:47;;;;;;;;;;;;;;;7.30;100.00;102110.78;5111789;28;19920;-46
2023/12/19 04:22:12;;;;;;;;;;;;;;;7.33;100.00;102118.56;5112142;28;20323;-50
2023/12/19 04:24:39;;;;;;;;;;;;;;;7.32;100.00;102095.44;5111516;28;20354;-51
2023/12/19 04:27:04;;;;;;;;;;;;;;;7.34;100.00;102098.81;5112235;28;19915;-48
2023/12/19 04:29:29;;;;;;;;;;;;;;;7.37;100.00;102097.72;5112469;28;20002;-47
2023/12/19 04:31:55;;;;;;;;;;;;;;;7.36;100.00;102110.25;5111989;28;19927;-45
2023/12/19 04:34:20;;;;;;;;;;;;;;;7.38;100.00;102094.06;5111970;28;20270;-45
2023/12/19 04:36:45;;;;;;;;;;;;;;;7.39;100.00;102098.44;5112314;28;20014;-46
2023/12/19 04:39:10;;;;;;;;;;;;;;;7.39;100.00;102088.56;5112848;28;19947;-45
2023/12/19 04:41:37;;;;;;;;;;;;;;;7.40;100.00;102092.97;5112361;28;19973;-46
2023/12/19 04:44:02;;;;;;;;;;;;;;;7.42;100.00;102092.81;5111781;28;19973;-44
2023/12/19 04:46:27;;;;;;;;;;;;;;;7.44;100.00;102098.91;5112603;28;19916;-46
2023/12/19 04:48:55;;;;;;;;;;;;;;;7.46;100.00;102094.25;5111596;28;20027;-46
2023/12/19 04:51:22;;;;;;;;;;;;;;;7.47;100.00;102091.44;5110130;28;20394;-45
2023/12/19 04:53:47;;;;;;;;;;;;;;;7.48;100.00;102093.16;5112052;28;20019;-44
2023/12/19 04:56:13;;;;;;;;;;;;;;;7.50;100.00;102087.66;5112057;28;19967;-53
2023/12/19 04:58:38;;;;;;;;;;;;;;;7.49;100.00;102094.00;5111920;28;19926;-50
2023/12/19 05:01:04;;;;;;;;;;;;;;;7.50;100.00;102100.19;5111710;28;20003;-52
2023/12/19 05:03:29;;;;;;;;;;;;;;;7.49;100.00;102099.34;5111588;28;19920;-55
2023/12/19 05:05:54;;;;;;;;;;;;;;;7.51;100.00;102088.53;5112042;28;19920;-51
2023/12/19 05:08:19;;;;;;;;;;;;;;;7.51;100.00;102081.31;5111724;28;20047;-52
2023/12/19 05:10:44;;;;;;;;;;;;;;;7.52;100.00;102074.13;5111478;28;19995;-51
2023/12/19 05:13:10;;;;;;;;;;;;;;;7.53;100.00;102070.47;5110256;28;19920;-47
2023/12/19 05:15:35;;;;;;;;;;;;;;;7.54;100.00;102089.09;5112743;28;19928;-53
2023/12/19 05:18:00;;;;;;;;;;;;;;;7.55;100.00;102074.72;5115513;28;19920;-54
2023/12/19 05:20:26;;;;;;;;;;;;;;;7.57;100.00;102074.59;5115502;28;19923;-51
2023/12/19 05:22:51;;;;;;;;;;;;;;;7.59;100.00;102057.41;5114891;28;19924;-49
2023/12/19 05:25:16;;;;;;;;;;;;;;;7.63;100.00;102061.50;5116189;28;19916;-48
2023/12/19 05:27:43;;;;;;;;;;;;;;;7.66;100.00;102057.69;5115341;28;19922;-50
2023/12/19 05:30:10;;;;;;;;;;;;;;;7.68;100.00;102059.28;5115073;28;19931;-53
2023/12/19 05:32:35;;;;;;;;;;;;;;;7.68;100.00;102045.88;5114652;28;20011;-49
2023/12/19 05:35:00;;;;;;;;;;;;;;;7.70;100.00;102069.88;5108415;28;20401;-49
2023/12/19 05:37:25;;;;;;;;;;;;;;;7.74;100.00;102040.97;5095141;28;20378;-48
2023/12/19 05:39:50;;;;;;;;;;;;;;;7.76;100.00;102033.66;5099140;28;20400;-48
2023/12/19 05:42:16;;;;;;;;;;;;;;;7.80;100.00;102027.88;5111490;28;20026;-45
2023/12/19 05:44:41;;;;;;;;;;;;;;;7.83;100.00;102032.13;5107778;28;19916;-47
2023/12/19 05:47:06;;;;;;;;;;;;;;;7.86;100.00;102032.69;5113121;28;19931;-47
2023/12/19 05:49:31;;;;;;;;;;;;;;;7.94;100.00;102018.63;5114859;28;19938;-48
2023/12/19 05:51:57;;;;;;;;;;;;;;;7.99;100.00;102012.84;5110082;28;20011;-48
2023/12/19 05:54:23;;;;;;;;;;;;;;;8.04;100.00;102019.50;5112612;28;19923;-47
2023/12/19 05:56:48;;;;;;;;;;;;;;;8.10;100.00;102018.09;5112745;28;19920;-45
2023/12/19 05:59:13;;;;;;;;;;;;;;;8.13;100.00;102025.88;5113044;28;20032;-47
2023/12/19 06:01:42;;;;;;;;;;;;;;;8.19;100.00;102003.88;5111244;28;20354;-47
2023/12/19 06:04:07;;;;;;;;;;;;;;;8.30;100.00;102002.91;5111758;28;19938;-46
2023/12/19 06:06:34;;;;;;;;;;;;;;;8.35;100.00;102006.03;5114637;28;20373;-45
2023/12/19 06:08:59;;;;;;;;;;;;;;;8.38;100.00;102015.63;5115230;28;19916;-45
2023/12/19 06:11:26;;;;;;;;;;;;;;;8.41;100.00;101999.28;5112636;28;19920;-45
2023/12/19 06:13:51;;;;;;;;;;;;;;;8.46;100.00;102008.63;5113601;28;19927;-45
2023/12/19 06:16:16;;;;;;;;;;;;;;;8.53;100.00;102014.25;5114628;28;19920;-44
2023/12/19 06:18:42;;;;;;;;;;;;;;;8.54;100.00;102003.41;5114663;28;19927;-44
2023/12/19 06:21:07;;;;;;;;;;;;;;;8.58;100.00;102001.25;5114438;28;19996;-45
2023/12/19 06:23:32;;;;;;;;;;;;;;;8.61;100.00;102005.50;5114474;28;19938;-44
2023/12/19 06:25:57;;;;;;;;;;;;;;;8.64;100.00;101989.16;5114727;28;19968;-43
2023/12/19 06:28:23;;;;;;;;;;;;;;;8.67;100.00;101999.59;5106764;28;19931;-44
2023/12/19 06:30:49;;;;;;;;;;;;;;;8.67;100.00;101994.22;5114504;28;19920;-46
2023/12/19 06:33:14;;;;;;;;;;;;;;;8.66;100.00;102006.81;5114458;28;19931;-45
2023/12/19 06:35:41;;;;;;;;;;;;;;;8.66;100.00;101987.16;5112326;28;19915;-44
2023/12/19 06:38:06;;;;;;;;;;;;;;;8.68;100.00;101980.66;5110994;28;19927;-44
2023/12/19 06:40:31;;;;;;;;;;;;;;;8.70;100.00;101988.56;5093319;28;19917;-43
2023/12/19 06:42:57;;;;;;;;;;;;;;;8.69;100.00;101978.81;5112125;28;19919;-45
2023/12/19 06:45:22;;;;;;;;;;;;;;;8.72;100.00;101982.06;5112351;28;19920;-45
2023/12/19 06:47:47;;;;;;;;;;;;;;;8.72;100.00;101987.44;5114234;28;19923;-44
2023/12/19 06:50:12;;;;;;;;;;;;;;;8.72;100.00;101986.59;5113839;28;19916;-45
2023/12/19 06:52:38;;;;;;;;;;;;;;;8.76;100.00;102002.25;5112615;28;19926;-46
2023/12/19 06:55:03;;;;;;;;;;;;;;;8.78;100.00;101986.88;5113269;28;19923;-47
2023/12/19 06:57:28;;;;;;;;;;;;;;;8.76;100.00;101983.47;5114201;28;19912;-49
2023/12/19 06:59:54;;;;;;;;;;;;;;;8.76;100.00;101985.31;5114126;28;19922;-49
2023/12/19 07:02:19;;;;;;;;;;;;;;;8.74;100.00;101971.19;5113998;28;19920;-47
2023/12/19 07:04:44;;;;;;;;;;;;;;;8.76;100.00;101990.69;5113728;28;20338;-47
2023/12/19 07:07:09;;;;;;;;;;;;;;;8.74;100.00;101989.97;5113521;28;19927;-47
2023/12/19 07:09:35;;;;;;;;;;;;;;;8.72;100.00;101965.97;5113434;28;19924;-46
2023/12/19 07:12:01;;;;;;;;;;;;;;;8.72;100.00;101963.28;5113616;28;20278;-46
2023/12/19 07:14:27;;;;;;;;;;;;;;;8.72;100.00;101960.59;5113499;28;20000;-47
2023/12/19 07:16:52;;;;;;;;;;;;;;;8.73;100.00;101967.66;5113595;28;19976;-46
2023/12/19 07:19:18;;;;;;;;;;;;;;;8.74;100.00;101966.69;5113688;28;19963;-46
2023/12/19 07:21:44;;;;;;;;;;;;;;;8.72;100.00;101962.44;5113362;28;19956;-46
2023/12/19 07:24:09;;;;;;;;;;;;;;;8.72;100.00;101957.09;5114319;28;19941;-47
2023/12/19 07:26:35;;;;;;;;;;;;;;;8.74;100.00;101952.41;5113263;28;19916;-46
2023/12/19 07:29:02;;;;;;;;;;;;;;;8.73;100.00;101956.06;5113371;28;19937;-47
2023/12/19 07:31:28;;;;;;;;;;;;;;;8.76;100.00;101955.78;5111814;27;19920;-46
2023/12/19 07:34:06;;;;;;;;;;;;;;;8.75;100.00;101948.75;5111008;28;19931;-44
2023/12/19 07:36:32;;;;;;;;;;;;;;;8.73;100.00;101948.03;5109727;28;19916;-49
2023/12/19 07:38:58;;;;;;;;;;;;;;;8.73;100.00;101945.34;5109311;28;20297;-45
2023/12/19 07:41:26;;;;;;;;;;;;;;;8.73;100.00;101950.72;5112419;28;19922;-45
2023/12/19 07:43:51;;;;;;;;;;;;;;;8.76;100.00;101962.00;5106287;28;19931;-44
2023/12/19 07:46:17;;;;;;;;;;;;;;;8.75;100.00;101957.63;5112378;28;19920;-43
2023/12/19 07:48:42;;;;;;;;;;;;;;;8.75;100.00;101949.56;5112611;28;19963;-43
2023/12/19 07:51:08;;;;;;;;;;;;;;;8.74;100.00;101941.66;5111724;28;19920;-44
2023/12/19 07:53:33;;;;;;;;;;;;;;;8.74;100.00;101941.66;5112287;27;19924;-43
2023/12/19 07:56:02;;;;;;;;;;;;;;;8.71;100.00;101936.56;5111454;28;19916;-43
2023/12/19 07:58:27;;;;;;;;;;;;;;;8.69;100.00;101923.31;5112376;28;20038;-43
2023/12/19 08:00:52;;;;;;;;;;;;;;;8.69;100.00;101930.50;5111889;28;19963;-43
2023/12/19 08:03:18;;;;;;;;;;;;;;;8.68;100.00;101932.34;5110907;28;20386;-44
2023/12/19 08:05:50;;;;;;;;;;;;;;;8.67;100.00;101935.19;5112263;28;20282;-44
2023/12/19 08:08:16;;;;;;;;;;;;;;;8.66;100.00;101938.84;5112138;28;19930;-44
2023/12/19 08:10:43;;;;;;;;;;;;;;;8.68;100.00;101921.59;5112096;28;20055;-43
2023/12/19 08:13:08;;;;;;;;;;;;;;;8.67;100.00;101919.94;5109103;28;19915;-44
2023/12/19 08:15:34;;;;;;;;;;;;;;;8.67;100.00;101919.94;5111956;28;19916;-45
2023/12/19 08:17:59;;;;;;;;;;;;;;;8.70;100.00;101918.78;5103643;28;19927;-44
2023/12/19 08:20:24;;;;;;;;;;;;;;;8.71;100.00;101917.78;5108614;28;20389;-44
2023/12/19 08:22:50;;;;;;;;;;;;;;;8.73;100.00;101913.13;5111024;28;20362;-45
2023/12/19 08:25:15;;;;;;;;;;;;;;;8.77;100.00;101911.88;5110348;28;19927;-45
2023/12/19 08:27:40;;;;;;;;;;;;;;;8.75;100.00;101921.91;5109220;28;19927;-45
2023/12/19 08:30:07;;;;;;;;;;;;;;;8.77;100.00;101909.19;5109458;28;19920;-44
2023/12/19 08:32:32;;;;;;;;;;;;;;;8.77;100.00;101906.50;5108804;28;19920;-45
2023/12/19 08:35:01;;;;;;;;;;;;;;;8.78;100.00;101913.56;5108288;28;19947;-46
2023/12/19 08:37:26;;;;;;;;;;;;;;;8.81;100.00;101913.25;5112194;28;19926;-45
2023/12/19 08:39:56;;;;;;;;;;;;;;;8.85;100.00;101901.25;5109294;28;19928;-46
2023/12/19 08:42:21;;;;;;;;;;;;;;;8.85;100.00;101900.41;5109926;28;19916;-44
2023/12/19 08:44:46;;;;;;;;;;;;;;;8.82;100.00;101906.91;5109483;28;19916;-45
2023/12/19 08:47:12;;;;;;;;;;;;;;;8.82;100.00;101893.50;5110951;28;19928;-46
2023/12/19 08:49:42;;;;;;;;;;;;;;;8.79;100.00;101902.69;5109382;28;20010;-46
2023/12/19 08:52:07;;;;;;;;;;;;;;;8.81;100.00;101890.94;5113256;28;20389;-45
2023/12/19 08:54:32;;;;;;;;;;;;;;;8.84;100.00;101904.91;5116777;28;19923;-46
2023/12/19 08:56:59;;;;;;;;;;;;;;;8.82;100.00;101888.13;5116604;28;19916;-47
2023/12/19 08:59:24;;;;;;;;;;;;;;;8.82;100.00;101888.13;5113630;28;19919;-40
2023/12/19 09:01:49;;;;;;;;;;;;;;;8.81;100.00;101888.25;5109012;28;19931;-41
2023/12/19 09:04:14;;;;;;;;;;;;;;;8.83;100.00;101884.44;5110488;28;20185;-41
2023/12/19 09:06:40;;;;;;;;;;;;;;;8.80;100.00;101887.41;5115013;28;19924;-41
2023/12/19 09:09:05;;;;;;;;;;;;;;;8.86;100.00;101886.81;5112863;28;19932;-40
2023/12/19 09:11:32;;;;;;;;;;;;;;;8.89;100.00;101886.53;5114712;28;20309;-41
2023/12/19 09:13:57;;;;;;;;;;;;;;;8.90;100.00;101882.00;5113920;28;19947;-41
2023/12/19 09:16:22;;;;;;;;;;;;;;;8.89;100.00;101880.31;5115084;28;20310;-43
2023/12/19 09:18:47;;;;;;;;;;;;;;;8.87;100.00;101888.50;5105553;28;20371;-42
2023/12/19 09:21:13;;;;;;;;;;;;;;;8.89;100.00;101875.78;5109994;28;20407;-42
2023/12/19 09:23:39;;;;;;;;;;;;;;;8.84;100.00;101875.38;5111912;28;19924;-43
2023/12/19 09:26:04;;;;;;;;;;;;;;;8.79;100.00;101866.91;5115694;28;19992;-43
2023/12/19 09:28:29;;;;;;;;;;;;;;;8.79;100.00;101866.91;5115087;28;20003;-43
2023/12/19 09:30:55;;;;;;;;;;;;;;;8.80;100.00;101855.22;5115483;28;19920;-44
2023/12/19 09:33:20;;;;;;;;;;;;;;;8.73;100.00;101860.28;5109733;28;19931;-43
2023/12/19 09:35:45;;;;;;;;;;;;;;;8.75;100.00;101852.13;5109043;28;20616;-43
2023/12/19 09:38:11;;;;;;;;;;;;;;;8.77;100.00;101850.97;5116351;28;20454;-42
2023/12/19 09:40:36;;;;;;;;;;;;;;;8.76;100.00;101862.69;5115543;28;20366;-43
2023/12/19 09:43:02;;;;;;;;;;;;;;;8.73;100.00;101854.94;5114864;27;20015;-44
2023/12/19 09:45:27;;;;;;;;;;;;;;;8.70;100.00;101843.66;5115013;28;19920;-45
2023/12/19 09:47:57;;;;;;;;;;;;;;;8.71;100.00;101845.31;5112880;28;19980;-45
2023/12/19 09:50:23;;;;;;;;;;;;;;;8.70;100.00;101854.38;5109892;28;19923;-45
2023/12/19 09:52:48;;;;;;;;;;;;;;;8.73;100.00;101854.09;5096911;28;19926;-44
2023/12/19 09:55:13;;;;;;;;;;;;;;;8.73;100.00;101848.72;5107687;28;19920;-46
2023/12/19 09:57:38;;;;;;;;;;;;;;;8.69;100.00;101853.53;5098447;28;19920;-46
2023/12/19 10:00:07;;;;;;;;;;;;;;;8.72;100.00;101847.88;5103855;28;19920;-46
2023/12/19 10:02:32;;;;;;;;;;;;;;;8.79;100.00;101834.72;5113310;28;19915;-45
2023/12/19 10:04:58;;;;;;;;;;;;;;;8.82;100.00;101826.38;5109690;28;19920;-45
2023/12/19 10:07:23;;;;;;;;;;;;;;;8.84;100.00;101840.50;5113028;28;20011;-45
2023/12/19 10:09:55;;;;;;;;;;;;;;;8.87;100.00;101834.81;5094343;28;20032;-45
2023/12/19 10:12:20;;;;;;;;;;;;;;;8.89;100.00;101821.25;5094489;28;19916;-46
2023/12/19 10:14:47;;;;;;;;;;;;;;;8.88;100.00;101820.41;5094411;28;19916;-46
2023/12/19 10:17:17;;;;;;;;;;;;;;;8.88;100.00;101817.75;5094278;28;20006;-45
2023/12/19 10:19:43;;;;;;;;;;;;;;;8.90;100.00;101813.06;5093567;28;20005;-45
2023/12/19 10:22:09;;;;;;;;;;;;;;;8.91;100.00;101814.75;5094720;28;19919;-45
2023/12/19 10:24:34;;;;;;;;;;;;;;;8.90;100.00;101807.72;5094006;28;19916;-45
2023/12/19 10:27:05;;;;;;;;;;;;;;;8.94;100.00;101792.97;5093844;28;20286;-45
2023/12/19 10:29:36;;;;;;;;;;;;;;;8.89;100.00;101803.31;5126420;27;20298;-47
2023/12/19 10:32:17;;;;;;;;;;;;;;;8.84;100.00;101794.84;5094213;28;19916;-45
2023/12/19 10:35:00;;;;;;;;;;;;;;;8.87;100.00;101783.81;5093565;28;20033;-45
2023/12/19 10:37:28;;;;;;;;;;;;;;;8.90;100.00;101783.53;5093792;28;19916;-46
2023/12/19 10:40:14;;;;;;;;;;;;;;;8.86;100.00;101782.13;5093943;28;19916;-44
2023/12/19 10:42:39;;;;;;;;;;;;;;;8.91;100.00;101771.81;5094428;28;19916;-44
2023/12/19 10:45:05;;;;;;;;;;;;;;;8.89;100.00;101792.56;5094064;28;20358;-44
2023/12/19 10:47:30;;;;;;;;;;;;;;;8.92;100.00;101767.28;5093919;28;20350;-46
2023/12/19 10:49:55;;;;;;;;;;;;;;;8.86;100.00;101770.56;5093642;28;19969;-45
2023/12/19 10:52:22;;;;;;;;;;;;;;;8.91;100.00;101750.31;5093803;28;19961;-46
2023/12/19 10:54:47;;;;;;;;;;;;;;;8.79;100.00;101743.44;5126388;27;20015;-45
2023/12/19 10:57:16;;;;;;;;;;;;;;;8.79;100.00;101740.75;5126036;27;19959;-46
2023/12/19 10:59:50;;;;;;;;;;;;;;;8.81;100.00;101744.16;5093386;28;20388;-45
2023/12/19 11:02:29;;;;;;;;;;;;;;;8.82;100.00;101739.63;5093683;28;19938;-46
2023/12/19 11:04:58;;;;;;;;;;;;;;;8.79;100.00;101724.66;5126013;27;20392;-51
2023/12/19 11:07:23;;;;;;;;;;;;;;;8.72;100.00;101719.06;5109444;28;20324;-44
2023/12/19 11:09:49;;;;;;;;;;;;;;;8.75;100.00;101708.00;5126225;27;19934;-44
2023/12/19 11:12:15;;;;;;;;;;;;;;;8.75;100.00;101715.22;5126789;27;20227;-45
2023/12/19 11:14:41;;;;;;;;;;;;;;;8.76;100.00;101703.50;5126676;27;19916;-45
2023/12/19 11:17:11;;;;;;;;;;;;;;;8.74;100.00;101702.78;5093982;28;20343;-46
2023/12/19 11:19:44;;;;;;;;;;;;;;;8.78;100.00;101698.81;5126566;27;19924;-45
2023/12/19 11:22:14;;;;;;;;;;;;;;;8.78;100.00;101702.34;5126122;27;19916;-45
2023/12/19 11:24:50;;;;;;;;;;;;;;;8.77;100.00;101695.31;5126332;27;19952;-46
2023/12/19 11:27:21;;;;;;;;;;;;;;;8.83;100.00;101695.69;5092374;28;19962;-45
2023/12/19 11:29:50;;;;;;;;;;;;;;;8.80;100.00;101688.78;5092992;28;19916;-47
2023/12/19 11:32:27;;;;;;;;;;;;;;;8.81;100.00;101676.22;5093003;28;19916;-45
2023/12/19 11:34:53;;;;;;;;;;;;;;;8.83;100.00;101650.91;5091595;28;19915;-44
2023/12/19 11:37:22;;;;;;;;;;;;;;;8.85;100.00;101673.09;5093140;28;19958;-45
2023/12/19 11:39:47;;;;;;;;;;;;;;;8.81;100.00;101657.41;5092879;28;19916;-44
2023/12/19 11:42:31;;;;;;;;;;;;;;;8.80;100.00;101656.59;5092764;28;19916;-45
2023/12/19 11:44:56;;;;;;;;;;;;;;;8.83;100.00;101658.97;5092481;28;20278;-46
2023/12/19 11:47:22;;;;;;;;;;;;;;;8.79;100.00;101661.09;5092849;28;19923;-46
2023/12/19 11:49:47;;;;;;;;;;;;;;;8.80;100.00;101664.63;5092855;28;19916;-45
2023/12/19 11:52:38;;;;;;;;;;;;;;;8.81;100.00;101662.78;5092558;28;19923;-46
2023/12/19 11:55:04;;;;;;;;;;;;;;;8.78;100.00;101647.81;5090435;28;19916;-47
2023/12/19 11:57:29;;;;;;;;;;;;;;;8.77;100.00;101641.63;5092542;28;19927;-44
2023/12/19 11:59:55;;;;;;;;;;;;;;;8.77;100.00;101641.63;5092521;28;19916;-45
2023/12/19 12:02:31;;;;;;;;;;;;;;;8.72;100.00;101643.06;5092501;28;20008;-45
2023/12/19 12:05:09;;;;;;;;;;;;;;;8.74;100.00;101638.38;5092216;28;19916;-47
2023/12/19 12:07:39;;;;;;;;;;;;;;;8.75;100.00;101637.41;5092470;28;20036;-47
2023/12/19 12:10:06;;;;;;;;;;;;;;;8.77;100.00;101638.94;5090543;28;19920;-47
2023/12/19 12:12:32;;;;;;;;;;;;;;;8.81;100.00;101644.00;5092674;28;19916;-47
2023/12/19 12:15:04;;;;;;;;;;;;;;;8.77;100.00;101635.41;5092238;28;20003;-46
2023/12/19 12:17:32;;;;;;;;;;;;;;;8.77;100.00;101636.25;5092354;28;20433;-45
2023/12/19 12:19:57;;;;;;;;;;;;;;;8.78;100.00;101637.09;5092201;28;19981;-48
2023/12/19 12:22:24;;;;;;;;;;;;;;;8.80;100.00;101645.84;5092230;28;20294;-45
2023/12/19 12:24:51;;;;;;;;;;;;;;;8.78;100.00;101637.09;5091599;28;20012;-46
2023/12/19 12:27:17;;;;;;;;;;;;;;;8.80;100.00;101640.47;5092389;28;19927;-47
2023/12/19 12:29:42;;;;;;;;;;;;;;;8.71;100.00;101627.94;5092406;28;20332;-46